sensor_id;sensor_type;location;lat;lon;timestamp;P1;durP1;ratioP1;P2;durP2;ratioP2
17363;SDS011;8799;43.594;13.526;2022-07-25T00:02:09;11.60;;;8.07;;
17363;SDS011;8799;43.594;13.526;2022-07-25T00:04:36;14.47;;;9.13;;
17363;SDS011;8799;43.594;13.526;2022-07-25T00:09:39;9.40;;;8.37;;
17363;SDS011;8799;43.594;13.526;2022-07-25T00:12:08;12.80;;;8.37;;
17363;SDS011;8799;43.594;13.526;2022-07-25T00:14:38;12.20;;;8.57;;
17363;SDS011;8799;43.594;13.526;2022-07-25T00:17:05;11.37;;;8.57;;
17363;SDS011;8799;43.594;13.526;2022-07-25T00:19:34;10.83;;;8.13;;
17363;SDS011;8799;43.594;13.526;2022-07-25T00:22:01;10.73;;;8.23;;
17363;SDS011;8799;43.594;13.526;2022-07-25T00:24:30;10.17;;;8.83;;
17363;SDS011;8799;43.594;13.526;2022-07-25T00:26:58;10.53;;;8.73;;
17363;SDS011;8799;43.594;13.526;2022-07-25T00:29:25;14.67;;;9.40;;
17363;SDS011;8799;43.594;13.526;2022-07-25T00:31:54;13.37;;;8.97;;
17363;SDS011;8799;43.594;13.526;2022-07-25T00:34:23;11.33;;;8.73;;
17363;SDS011;8799;43.594;13.526;2022-07-25T00:36:50;15.37;;;8.80;;
17363;SDS011;8799;43.594;13.526;2022-07-25T00:39:19;15.00;;;8.80;;
17363;SDS011;8799;43.594;13.526;2022-07-25T00:41:47;11.23;;;9.13;;
17363;SDS011;8799;43.594;13.526;2022-07-25T00:44:21;12.63;;;9.17;;
17363;SDS011;8799;43.594;13.526;2022-07-25T00:46:50;9.33;;;8.33;;
17363;SDS011;8799;43.594;13.526;2022-07-25T00:49:19;11.63;;;9.37;;
17363;SDS011;8799;43.594;13.526;2022-07-25T00:51:47;11.37;;;8.40;;
17363;SDS011;8799;43.594;13.526;2022-07-25T00:54:16;11.47;;;9.37;;
17363;SDS011;8799;43.594;13.526;2022-07-25T00:56:47;9.70;;;8.73;;
17363;SDS011;8799;43.594;13.526;2022-07-25T00:59:15;12.87;;;9.47;;
17363;SDS011;8799;43.594;13.526;2022-07-25T01:01:43;10.93;;;8.97;;
17363;SDS011;8799;43.594;13.526;2022-07-25T01:04:12;11.27;;;9.87;;
17363;SDS011;8799;43.594;13.526;2022-07-25T01:06:41;14.77;;;9.20;;
17363;SDS011;8799;43.594;13.526;2022-07-25T01:09:09;11.10;;;9.87;;
17363;SDS011;8799;43.594;13.526;2022-07-25T01:11:38;12.70;;;9.83;;
17363;SDS011;8799;43.594;13.526;2022-07-25T01:14:10;12.57;;;9.73;;
17363;SDS011;8799;43.594;13.526;2022-07-25T01:16:38;12.53;;;10.00;;
17363;SDS011;8799;43.594;13.526;2022-07-25T01:19:06;11.23;;;9.83;;
17363;SDS011;8799;43.594;13.526;2022-07-25T01:21:37;11.00;;;9.87;;
17363;SDS011;8799;43.594;13.526;2022-07-25T01:24:05;13.57;;;9.97;;
17363;SDS011;8799;43.594;13.526;2022-07-25T01:26:34;15.00;;;9.90;;
17363;SDS011;8799;43.594;13.526;2022-07-25T01:29:02;12.33;;;9.83;;
17363;SDS011;8799;43.594;13.526;2022-07-25T01:31:31;12.87;;;10.13;;
17363;SDS011;8799;43.594;13.526;2022-07-25T01:33:59;10.90;;;8.87;;
17363;SDS011;8799;43.594;13.526;2022-07-25T01:36:27;12.60;;;8.67;;
17363;SDS011;8799;43.594;13.526;2022-07-25T01:38:59;10.73;;;8.83;;
17363;SDS011;8799;43.594;13.526;2022-07-25T01:41:26;12.10;;;9.40;;
17363;SDS011;8799;43.594;13.526;2022-07-25T01:43:54;12.47;;;8.50;;
17363;SDS011;8799;43.594;13.526;2022-07-25T01:46:22;10.53;;;9.43;;
17363;SDS011;8799;43.594;13.526;2022-07-25T01:48:50;11.77;;;9.20;;
17363;SDS011;8799;43.594;13.526;2022-07-25T01:51:18;11.30;;;9.07;;
17363;SDS011;8799;43.594;13.526;2022-07-25T01:53:46;10.50;;;9.40;;
17363;SDS011;8799;43.594;13.526;2022-07-25T01:56:15;10.87;;;9.47;;
17363;SDS011;8799;43.594;13.526;2022-07-25T01:58:43;11.40;;;9.93;;
17363;SDS011;8799;43.594;13.526;2022-07-25T02:01:11;11.57;;;9.40;;
17363;SDS011;8799;43.594;13.526;2022-07-25T02:03:43;11.10;;;9.30;;
17363;SDS011;8799;43.594;13.526;2022-07-25T02:06:12;12.50;;;9.83;;
17363;SDS011;8799;43.594;13.526;2022-07-25T02:08:40;12.67;;;9.23;;
17363;SDS011;8799;43.594;13.526;2022-07-25T02:11:07;10.73;;;9.47;;
17363;SDS011;8799;43.594;13.526;2022-07-25T02:13:36;13.80;;;9.25;;
17363;SDS011;8799;43.594;13.526;2022-07-25T02:16:04;12.43;;;9.40;;
17363;SDS011;8799;43.594;13.526;2022-07-25T02:18:32;10.60;;;9.50;;
17363;SDS011;8799;43.594;13.526;2022-07-25T02:21:00;11.38;;;10.18;;
17363;SDS011;8799;43.594;13.526;2022-07-25T02:23:31;11.53;;;9.90;;
17363;SDS011;8799;43.594;13.526;2022-07-25T02:25:58;12.93;;;9.10;;
17363;SDS011;8799;43.594;13.526;2022-07-25T02:28:26;10.80;;;9.70;;
17363;SDS011;8799;43.594;13.526;2022-07-25T02:30:56;11.90;;;9.67;;
17363;SDS011;8799;43.594;13.526;2022-07-25T02:33:23;15.03;;;9.53;;
17363;SDS011;8799;43.594;13.526;2022-07-25T02:35:51;11.20;;;9.93;;
17363;SDS011;8799;43.594;13.526;2022-07-25T02:38:19;12.53;;;9.57;;
17363;SDS011;8799;43.594;13.526;2022-07-25T02:40:46;12.43;;;9.33;;
17363;SDS011;8799;43.594;13.526;2022-07-25T02:43:15;11.07;;;9.17;;
17363;SDS011;8799;43.594;13.526;2022-07-25T02:45:44;14.33;;;10.23;;
17363;SDS011;8799;43.594;13.526;2022-07-25T02:48:13;12.23;;;9.07;;
17363;SDS011;8799;43.594;13.526;2022-07-25T02:50:40;11.03;;;9.27;;
17363;SDS011;8799;43.594;13.526;2022-07-25T02:53:11;10.47;;;8.83;;
17363;SDS011;8799;43.594;13.526;2022-07-25T02:55:43;11.67;;;9.20;;
17363;SDS011;8799;43.594;13.526;2022-07-25T02:58:10;12.87;;;8.97;;
17363;SDS011;8799;43.594;13.526;2022-07-25T03:00:38;14.73;;;8.77;;
17363;SDS011;8799;43.594;13.526;2022-07-25T03:03:06;10.25;;;8.32;;
17363;SDS011;8799;43.594;13.526;2022-07-25T03:05:36;10.40;;;9.30;;
17363;SDS011;8799;43.594;13.526;2022-07-25T03:08:04;12.30;;;9.60;;
17363;SDS011;8799;43.594;13.526;2022-07-25T03:10:32;10.03;;;8.97;;
17363;SDS011;8799;43.594;13.526;2022-07-25T03:13:00;10.83;;;8.80;;
17363;SDS011;8799;43.594;13.526;2022-07-25T03:15:28;11.03;;;9.10;;
17363;SDS011;8799;43.594;13.526;2022-07-25T03:17:56;10.07;;;9.00;;
17363;SDS011;8799;43.594;13.526;2022-07-25T03:20:23;10.90;;;8.73;;
17363;SDS011;8799;43.594;13.526;2022-07-25T03:22:53;11.40;;;8.93;;
17363;SDS011;8799;43.594;13.526;2022-07-25T03:25:20;10.10;;;8.83;;
17363;SDS011;8799;43.594;13.526;2022-07-25T03:27:49;9.43;;;8.43;;
17363;SDS011;8799;43.594;13.526;2022-07-25T03:30:16;10.13;;;8.70;;
17363;SDS011;8799;43.594;13.526;2022-07-25T03:32:44;12.73;;;9.30;;
17363;SDS011;8799;43.594;13.526;2022-07-25T03:35:12;9.93;;;8.80;;
17363;SDS011;8799;43.594;13.526;2022-07-25T03:37:43;12.50;;;9.07;;
17363;SDS011;8799;43.594;13.526;2022-07-25T03:40:13;13.67;;;8.70;;
17363;SDS011;8799;43.594;13.526;2022-07-25T03:42:41;9.37;;;8.37;;
17363;SDS011;8799;43.594;13.526;2022-07-25T03:45:08;9.53;;;8.53;;
17363;SDS011;8799;43.594;13.526;2022-07-25T03:47:36;9.73;;;7.40;;
17363;SDS011;8799;43.594;13.526;2022-07-25T03:50:04;14.83;;;8.53;;
17363;SDS011;8799;43.594;13.526;2022-07-25T03:52:32;12.83;;;8.20;;
17363;SDS011;8799;43.594;13.526;2022-07-25T03:55:02;8.80;;;7.50;;
17363;SDS011;8799;43.594;13.526;2022-07-25T03:57:32;8.70;;;7.47;;
17363;SDS011;8799;43.594;13.526;2022-07-25T03:59:59;8.97;;;7.83;;
17363;SDS011;8799;43.594;13.526;2022-07-25T04:02:27;10.67;;;7.73;;
17363;SDS011;8799;43.594;13.526;2022-07-25T04:04:59;8.90;;;6.97;;
17363;SDS011;8799;43.594;13.526;2022-07-25T04:07:27;8.97;;;6.93;;
17363;SDS011;8799;43.594;13.526;2022-07-25T04:09:54;7.73;;;6.33;;
17363;SDS011;8799;43.594;13.526;2022-07-25T04:12:22;10.00;;;6.17;;
17363;SDS011;8799;43.594;13.526;2022-07-25T04:14:51;7.47;;;6.07;;
17363;SDS011;8799;43.594;13.526;2022-07-25T04:17:19;9.77;;;6.20;;
17363;SDS011;8799;43.594;13.526;2022-07-25T04:19:47;8.43;;;6.13;;
17363;SDS011;8799;43.594;13.526;2022-07-25T04:22:14;10.87;;;5.80;;
17363;SDS011;8799;43.594;13.526;2022-07-25T04:24:42;7.80;;;5.90;;
17363;SDS011;8799;43.594;13.526;2022-07-25T04:27:10;10.13;;;6.60;;
17363;SDS011;8799;43.594;13.526;2022-07-25T04:29:37;7.93;;;6.00;;
17363;SDS011;8799;43.594;13.526;2022-07-25T04:32:07;8.83;;;6.20;;
17363;SDS011;8799;43.594;13.526;2022-07-25T04:34:35;9.00;;;7.10;;
17363;SDS011;8799;43.594;13.526;2022-07-25T04:37:03;9.63;;;7.50;;
17363;SDS011;8799;43.594;13.526;2022-07-25T04:39:30;8.63;;;7.10;;
17363;SDS011;8799;43.594;13.526;2022-07-25T04:41:58;10.27;;;8.40;;
17363;SDS011;8799;43.594;13.526;2022-07-25T04:44:25;9.30;;;8.27;;
17363;SDS011;8799;43.594;13.526;2022-07-25T04:46:54;9.40;;;8.40;;
17363;SDS011;8799;43.594;13.526;2022-07-25T04:49:23;10.20;;;8.90;;
17363;SDS011;8799;43.594;13.526;2022-07-25T04:51:51;13.93;;;8.73;;
17363;SDS011;8799;43.594;13.526;2022-07-25T04:54:18;10.30;;;9.10;;
17363;SDS011;8799;43.594;13.526;2022-07-25T04:56:50;10.17;;;8.80;;
17363;SDS011;8799;43.594;13.526;2022-07-25T04:59:18;10.07;;;8.50;;
17363;SDS011;8799;43.594;13.526;2022-07-25T05:01:46;10.43;;;8.80;;
17363;SDS011;8799;43.594;13.526;2022-07-25T05:04:14;9.37;;;8.33;;
17363;SDS011;8799;43.594;13.526;2022-07-25T05:06:43;12.03;;;8.60;;
17363;SDS011;8799;43.594;13.526;2022-07-25T05:09:11;13.97;;;8.70;;
17363;SDS011;8799;43.594;13.526;2022-07-25T05:11:39;14.57;;;9.17;;
17363;SDS011;8799;43.594;13.526;2022-07-25T05:14:07;9.83;;;8.07;;
17363;SDS011;8799;43.594;13.526;2022-07-25T05:16:35;13.77;;;8.43;;
17363;SDS011;8799;43.594;13.526;2022-07-25T05:19:02;11.83;;;8.20;;
17363;SDS011;8799;43.594;13.526;2022-07-25T05:21:31;10.73;;;8.67;;
17363;SDS011;8799;43.594;13.526;2022-07-25T05:24:00;14.73;;;8.73;;
17363;SDS011;8799;43.594;13.526;2022-07-25T05:26:29;13.43;;;8.53;;
17363;SDS011;8799;43.594;13.526;2022-07-25T05:28:57;9.90;;;7.83;;
17363;SDS011;8799;43.594;13.526;2022-07-25T05:31:24;9.73;;;8.20;;
17363;SDS011;8799;43.594;13.526;2022-07-25T05:33:52;9.97;;;8.17;;
17363;SDS011;8799;43.594;13.526;2022-07-25T05:36:20;10.53;;;8.37;;
17363;SDS011;8799;43.594;13.526;2022-07-25T05:38:48;9.50;;;8.40;;
17363;SDS011;8799;43.594;13.526;2022-07-25T05:41:17;10.93;;;8.27;;
17363;SDS011;8799;43.594;13.526;2022-07-25T05:43:46;9.37;;;8.20;;
17363;SDS011;8799;43.594;13.526;2022-07-25T05:46:14;10.13;;;8.23;;
17363;SDS011;8799;43.594;13.526;2022-07-25T05:48:42;13.00;;;7.57;;
17363;SDS011;8799;43.594;13.526;2022-07-25T05:51:10;12.50;;;7.60;;
17363;SDS011;8799;43.594;13.526;2022-07-25T05:53:42;13.60;;;8.57;;
17363;SDS011;8799;43.594;13.526;2022-07-25T05:56:10;9.70;;;7.70;;
17363;SDS011;8799;43.594;13.526;2022-07-25T05:58:39;8.67;;;7.37;;
17363;SDS011;8799;43.594;13.526;2022-07-25T06:01:06;9.30;;;7.57;;
17363;SDS011;8799;43.594;13.526;2022-07-25T06:03:34;13.13;;;7.43;;
17363;SDS011;8799;43.594;13.526;2022-07-25T06:06:01;11.27;;;6.87;;
17363;SDS011;8799;43.594;13.526;2022-07-25T06:08:29;9.40;;;7.10;;
17363;SDS011;8799;43.594;13.526;2022-07-25T06:10:58;10.20;;;6.90;;
17363;SDS011;8799;43.594;13.526;2022-07-25T06:13:28;10.33;;;6.70;;
17363;SDS011;8799;43.594;13.526;2022-07-25T06:15:57;11.13;;;6.23;;
17363;SDS011;8799;43.594;13.526;2022-07-25T06:18:25;8.33;;;6.03;;
17363;SDS011;8799;43.594;13.526;2022-07-25T06:20:55;11.00;;;6.63;;
17363;SDS011;8799;43.594;13.526;2022-07-25T06:23:23;7.97;;;6.43;;
17363;SDS011;8799;43.594;13.526;2022-07-25T06:25:51;13.47;;;6.50;;
17363;SDS011;8799;43.594;13.526;2022-07-25T06:28:18;9.10;;;6.07;;
17363;SDS011;8799;43.594;13.526;2022-07-25T06:30:46;10.57;;;6.00;;
17363;SDS011;8799;43.594;13.526;2022-07-25T06:33:15;6.97;;;6.00;;
17363;SDS011;8799;43.594;13.526;2022-07-25T06:35:43;9.57;;;6.27;;
17363;SDS011;8799;43.594;13.526;2022-07-25T06:38:10;7.83;;;6.20;;
17363;SDS011;8799;43.594;13.526;2022-07-25T06:40:38;7.27;;;5.93;;
17363;SDS011;8799;43.594;13.526;2022-07-25T06:43:06;8.57;;;6.37;;
17363;SDS011;8799;43.594;13.526;2022-07-25T06:45:34;10.73;;;6.50;;
17363;SDS011;8799;43.594;13.526;2022-07-25T06:48:02;9.97;;;6.63;;
17363;SDS011;8799;43.594;13.526;2022-07-25T06:50:32;10.07;;;6.80;;
17363;SDS011;8799;43.594;13.526;2022-07-25T06:53:00;8.73;;;6.50;;
17363;SDS011;8799;43.594;13.526;2022-07-25T06:55:27;9.73;;;5.97;;
17363;SDS011;8799;43.594;13.526;2022-07-25T06:57:55;10.27;;;5.77;;
17363;SDS011;8799;43.594;13.526;2022-07-25T07:00:23;7.43;;;6.30;;
17363;SDS011;8799;43.594;13.526;2022-07-25T07:02:51;7.53;;;5.90;;
17363;SDS011;8799;43.594;13.526;2022-07-25T07:05:20;8.83;;;6.17;;
17363;SDS011;8799;43.594;13.526;2022-07-25T07:07:49;10.37;;;6.20;;
17363;SDS011;8799;43.594;13.526;2022-07-25T07:10:18;7.17;;;5.90;;
17363;SDS011;8799;43.594;13.526;2022-07-25T07:12:46;9.23;;;5.97;;
17363;SDS011;8799;43.594;13.526;2022-07-25T07:15:18;9.00;;;5.90;;
17363;SDS011;8799;43.594;13.526;2022-07-25T07:17:46;7.03;;;5.40;;
17363;SDS011;8799;43.594;13.526;2022-07-25T07:20:13;8.13;;;6.20;;
17363;SDS011;8799;43.594;13.526;2022-07-25T07:22:44;8.33;;;5.80;;
17363;SDS011;8799;43.594;13.526;2022-07-25T07:25:14;8.30;;;5.93;;
17363;SDS011;8799;43.594;13.526;2022-07-25T07:27:44;8.27;;;5.83;;
17363;SDS011;8799;43.594;13.526;2022-07-25T07:30:12;8.67;;;6.37;;
17363;SDS011;8799;43.594;13.526;2022-07-25T07:32:43;10.50;;;5.77;;
17363;SDS011;8799;43.594;13.526;2022-07-25T07:35:10;9.90;;;6.03;;
17363;SDS011;8799;43.594;13.526;2022-07-25T07:37:40;7.50;;;5.73;;
17363;SDS011;8799;43.594;13.526;2022-07-25T07:40:09;8.13;;;6.00;;
17363;SDS011;8799;43.594;13.526;2022-07-25T07:42:39;10.80;;;6.33;;
17363;SDS011;8799;43.594;13.526;2022-07-25T07:45:09;6.50;;;5.40;;
17363;SDS011;8799;43.594;13.526;2022-07-25T07:47:38;11.90;;;6.07;;
17363;SDS011;8799;43.594;13.526;2022-07-25T07:50:07;7.73;;;5.77;;
17363;SDS011;8799;43.594;13.526;2022-07-25T07:52:36;8.00;;;6.03;;
17363;SDS011;8799;43.594;13.526;2022-07-25T07:55:05;7.57;;;5.50;;
17363;SDS011;8799;43.594;13.526;2022-07-25T07:57:51;8.03;;;5.43;;
17363;SDS011;8799;43.594;13.526;2022-07-25T08:00:19;8.77;;;5.93;;
17363;SDS011;8799;43.594;13.526;2022-07-25T08:05:22;9.47;;;6.13;;
17363;SDS011;8799;43.594;13.526;2022-07-25T08:07:51;15.60;;;6.17;;
17363;SDS011;8799;43.594;13.526;2022-07-25T08:10:19;6.80;;;5.87;;
17363;SDS011;8799;43.594;13.526;2022-07-25T08:12:54;10.13;;;5.80;;
17363;SDS011;8799;43.594;13.526;2022-07-25T08:15:22;10.67;;;5.87;;
17363;SDS011;8799;43.594;13.526;2022-07-25T08:17:53;11.53;;;6.20;;
17363;SDS011;8799;43.594;13.526;2022-07-25T08:20:25;9.43;;;5.73;;
17363;SDS011;8799;43.594;13.526;2022-07-25T08:22:53;8.60;;;6.20;;
17363;SDS011;8799;43.594;13.526;2022-07-25T08:25:21;9.40;;;6.17;;
17363;SDS011;8799;43.594;13.526;2022-07-25T08:27:55;8.83;;;5.13;;
17363;SDS011;8799;43.594;13.526;2022-07-25T08:30:23;10.67;;;6.10;;
17363;SDS011;8799;43.594;13.526;2022-07-25T08:32:51;7.53;;;5.97;;
17363;SDS011;8799;43.594;13.526;2022-07-25T08:35:22;6.83;;;5.27;;
17363;SDS011;8799;43.594;13.526;2022-07-25T08:37:55;7.60;;;5.83;;
17363;SDS011;8799;43.594;13.526;2022-07-25T08:40:25;7.70;;;5.17;;
17363;SDS011;8799;43.594;13.526;2022-07-25T08:42:56;6.57;;;5.87;;
17363;SDS011;8799;43.594;13.526;2022-07-25T08:45:24;12.30;;;6.63;;
17363;SDS011;8799;43.594;13.526;2022-07-25T08:47:53;10.87;;;7.40;;
17363;SDS011;8799;43.594;13.526;2022-07-25T08:50:23;10.57;;;8.10;;
17363;SDS011;8799;43.594;13.526;2022-07-25T08:52:52;9.47;;;7.77;;
17363;SDS011;8799;43.594;13.526;2022-07-25T08:55:21;11.40;;;8.10;;
17363;SDS011;8799;43.594;13.526;2022-07-25T08:57:50;12.30;;;8.00;;
17363;SDS011;8799;43.594;13.526;2022-07-25T09:00:21;8.40;;;7.20;;
17363;SDS011;8799;43.594;13.526;2022-07-25T09:02:50;8.47;;;7.57;;
17363;SDS011;8799;43.594;13.526;2022-07-25T09:05:19;12.50;;;6.77;;
17363;SDS011;8799;43.594;13.526;2022-07-25T09:07:46;7.37;;;6.20;;
17363;SDS011;8799;43.594;13.526;2022-07-25T09:10:15;8.03;;;6.47;;
17363;SDS011;8799;43.594;13.526;2022-07-25T09:12:49;12.73;;;7.07;;
17363;SDS011;8799;43.594;13.526;2022-07-25T09:15:23;10.17;;;7.87;;
17363;SDS011;8799;43.594;13.526;2022-07-25T09:17:52;11.77;;;8.13;;
17363;SDS011;8799;43.594;13.526;2022-07-25T09:20:21;10.93;;;8.00;;
17363;SDS011;8799;43.594;13.526;2022-07-25T09:22:50;14.60;;;7.57;;
17363;SDS011;8799;43.594;13.526;2022-07-25T09:25:21;11.47;;;7.30;;
17363;SDS011;8799;43.594;13.526;2022-07-25T09:27:51;9.27;;;6.90;;
17363;SDS011;8799;43.594;13.526;2022-07-25T09:30:19;10.93;;;6.27;;
17363;SDS011;8799;43.594;13.526;2022-07-25T09:32:57;9.90;;;7.00;;
17363;SDS011;8799;43.594;13.526;2022-07-25T09:35:28;8.80;;;6.63;;
17363;SDS011;8799;43.594;13.526;2022-07-25T09:38:05;10.07;;;6.60;;
17363;SDS011;8799;43.594;13.526;2022-07-25T09:40:36;11.70;;;5.93;;
17363;SDS011;8799;43.594;13.526;2022-07-25T09:43:04;9.47;;;6.33;;
17363;SDS011;8799;43.594;13.526;2022-07-25T09:45:32;9.80;;;6.60;;
17363;SDS011;8799;43.594;13.526;2022-07-25T09:48:06;8.37;;;6.40;;
17363;SDS011;8799;43.594;13.526;2022-07-25T09:50:34;8.50;;;6.63;;
17363;SDS011;8799;43.594;13.526;2022-07-25T09:53:07;10.13;;;6.57;;
17363;SDS011;8799;43.594;13.526;2022-07-25T09:55:35;8.50;;;6.70;;
17363;SDS011;8799;43.594;13.526;2022-07-25T09:58:02;10.53;;;6.60;;
17363;SDS011;8799;43.594;13.526;2022-07-25T10:00:30;9.07;;;6.50;;
17363;SDS011;8799;43.594;13.526;2022-07-25T10:03:13;11.47;;;6.87;;
17363;SDS011;8799;43.594;13.526;2022-07-25T10:05:58;11.00;;;7.00;;
17363;SDS011;8799;43.594;13.526;2022-07-25T10:08:34;10.50;;;6.37;;
17363;SDS011;8799;43.594;13.526;2022-07-25T10:11:02;8.10;;;6.00;;
17363;SDS011;8799;43.594;13.526;2022-07-25T10:13:32;9.30;;;5.87;;
17363;SDS011;8799;43.594;13.526;2022-07-25T10:16:02;10.03;;;5.73;;
17363;SDS011;8799;43.594;13.526;2022-07-25T10:18:47;6.77;;;5.10;;
17363;SDS011;8799;43.594;13.526;2022-07-25T10:21:16;9.20;;;5.83;;
17363;SDS011;8799;43.594;13.526;2022-07-25T10:23:44;9.87;;;5.93;;
17363;SDS011;8799;43.594;13.526;2022-07-25T10:26:13;7.80;;;5.43;;
17363;SDS011;8799;43.594;13.526;2022-07-25T10:28:44;7.40;;;5.20;;
17363;SDS011;8799;43.594;13.526;2022-07-25T10:31:13;8.23;;;5.57;;
17363;SDS011;8799;43.594;13.526;2022-07-25T10:33:50;7.63;;;5.40;;
17363;SDS011;8799;43.594;13.526;2022-07-25T10:36:19;7.00;;;5.57;;
17363;SDS011;8799;43.594;13.526;2022-07-25T10:38:54;7.30;;;5.30;;
17363;SDS011;8799;43.594;13.526;2022-07-25T10:41:27;7.33;;;5.07;;
17363;SDS011;8799;43.594;13.526;2022-07-25T10:43:58;8.63;;;5.67;;
17363;SDS011;8799;43.594;13.526;2022-07-25T10:46:27;6.20;;;5.20;;
17363;SDS011;8799;43.594;13.526;2022-07-25T10:48:58;7.70;;;5.40;;
17363;SDS011;8799;43.594;13.526;2022-07-25T10:51:27;6.73;;;5.23;;
17363;SDS011;8799;43.594;13.526;2022-07-25T10:53:55;6.53;;;5.37;;
17363;SDS011;8799;43.594;13.526;2022-07-25T10:56:24;6.97;;;5.00;;
17363;SDS011;8799;43.594;13.526;2022-07-25T10:58:54;8.07;;;4.90;;
17363;SDS011;8799;43.594;13.526;2022-07-25T11:01:23;5.97;;;4.73;;
17363;SDS011;8799;43.594;13.526;2022-07-25T11:03:53;7.57;;;5.60;;
17363;SDS011;8799;43.594;13.526;2022-07-25T11:06:30;8.10;;;5.00;;
17363;SDS011;8799;43.594;13.526;2022-07-25T11:09:00;6.63;;;4.90;;
17363;SDS011;8799;43.594;13.526;2022-07-25T11:11:32;9.17;;;4.90;;
17363;SDS011;8799;43.594;13.526;2022-07-25T11:14:03;5.90;;;5.00;;
17363;SDS011;8799;43.594;13.526;2022-07-25T11:16:30;9.87;;;5.33;;
17363;SDS011;8799;43.594;13.526;2022-07-25T11:18:59;7.57;;;5.10;;
17363;SDS011;8799;43.594;13.526;2022-07-25T11:21:27;7.37;;;5.50;;
17363;SDS011;8799;43.594;13.526;2022-07-25T11:23:57;7.23;;;5.33;;
17363;SDS011;8799;43.594;13.526;2022-07-25T11:26:25;7.13;;;5.00;;
17363;SDS011;8799;43.594;13.526;2022-07-25T11:28:52;7.30;;;5.33;;
17363;SDS011;8799;43.594;13.526;2022-07-25T11:31:21;9.23;;;5.53;;
17363;SDS011;8799;43.594;13.526;2022-07-25T11:33:48;6.40;;;4.73;;
17363;SDS011;8799;43.594;13.526;2022-07-25T11:36:16;6.83;;;4.83;;
17363;SDS011;8799;43.594;13.526;2022-07-25T11:38:47;5.70;;;4.73;;
17363;SDS011;8799;43.594;13.526;2022-07-25T11:41:15;5.73;;;4.67;;
17363;SDS011;8799;43.594;13.526;2022-07-25T11:43:53;7.20;;;4.83;;
17363;SDS011;8799;43.594;13.526;2022-07-25T11:46:21;6.20;;;5.30;;
17363;SDS011;8799;43.594;13.526;2022-07-25T11:48:49;5.57;;;4.33;;
17363;SDS011;8799;43.594;13.526;2022-07-25T11:51:18;6.33;;;4.60;;
17363;SDS011;8799;43.594;13.526;2022-07-25T11:53:48;7.87;;;4.67;;
17363;SDS011;8799;43.594;13.526;2022-07-25T11:56:17;6.97;;;5.17;;
17363;SDS011;8799;43.594;13.526;2022-07-25T11:58:55;6.83;;;4.73;;
17363;SDS011;8799;43.594;13.526;2022-07-25T12:01:25;7.33;;;4.67;;
17363;SDS011;8799;43.594;13.526;2022-07-25T12:04:07;7.63;;;4.80;;
17363;SDS011;8799;43.594;13.526;2022-07-25T12:06:38;10.10;;;5.20;;
17363;SDS011;8799;43.594;13.526;2022-07-25T12:09:12;6.57;;;5.00;;
17363;SDS011;8799;43.594;13.526;2022-07-25T12:11:42;7.23;;;5.10;;
17363;SDS011;8799;43.594;13.526;2022-07-25T12:14:10;6.70;;;5.00;;
17363;SDS011;8799;43.594;13.526;2022-07-25T12:16:42;5.93;;;4.80;;
17363;SDS011;8799;43.594;13.526;2022-07-25T12:19:16;9.93;;;4.93;;
17363;SDS011;8799;43.594;13.526;2022-07-25T12:21:45;6.55;;;5.03;;
17363;SDS011;8799;43.594;13.526;2022-07-25T12:24:14;6.77;;;4.90;;
17363;SDS011;8799;43.594;13.526;2022-07-25T12:26:42;7.93;;;5.60;;
17363;SDS011;8799;43.594;13.526;2022-07-25T12:29:14;6.07;;;4.50;;
17363;SDS011;8799;43.594;13.526;2022-07-25T12:31:42;8.43;;;5.17;;
17363;SDS011;8799;43.594;13.526;2022-07-25T12:34:10;10.10;;;5.20;;
17363;SDS011;8799;43.594;13.526;2022-07-25T12:36:38;6.43;;;4.90;;
17363;SDS011;8799;43.594;13.526;2022-07-25T12:39:09;7.57;;;5.20;;
17363;SDS011;8799;43.594;13.526;2022-07-25T12:41:38;8.27;;;5.23;;
17363;SDS011;8799;43.594;13.526;2022-07-25T12:44:06;6.53;;;5.03;;
17363;SDS011;8799;43.594;13.526;2022-07-25T12:46:34;8.67;;;4.93;;
17363;SDS011;8799;43.594;13.526;2022-07-25T12:49:02;7.15;;;5.18;;
17363;SDS011;8799;43.594;13.526;2022-07-25T12:51:30;8.25;;;5.32;;
17363;SDS011;8799;43.594;13.526;2022-07-25T12:53:58;10.37;;;4.93;;
17363;SDS011;8799;43.594;13.526;2022-07-25T12:56:25;7.80;;;4.60;;
17363;SDS011;8799;43.594;13.526;2022-07-25T12:58:56;8.43;;;4.95;;
17363;SDS011;8799;43.594;13.526;2022-07-25T13:01:23;11.57;;;5.27;;
17363;SDS011;8799;43.594;13.526;2022-07-25T13:03:51;6.00;;;4.43;;
17363;SDS011;8799;43.594;13.526;2022-07-25T13:06:18;6.37;;;5.03;;
17363;SDS011;8799;43.594;13.526;2022-07-25T13:08:46;6.10;;;5.00;;
17363;SDS011;8799;43.594;13.526;2022-07-25T13:11:14;5.70;;;4.63;;
17363;SDS011;8799;43.594;13.526;2022-07-25T13:13:41;6.53;;;4.93;;
17363;SDS011;8799;43.594;13.526;2022-07-25T13:16:11;5.80;;;4.47;;
17363;SDS011;8799;43.594;13.526;2022-07-25T13:18:38;5.70;;;4.93;;
17363;SDS011;8799;43.594;13.526;2022-07-25T13:21:06;6.43;;;5.17;;
17363;SDS011;8799;43.594;13.526;2022-07-25T13:23:34;9.83;;;5.30;;
17363;SDS011;8799;43.594;13.526;2022-07-25T13:26:05;6.43;;;5.40;;
17363;SDS011;8799;43.594;13.526;2022-07-25T13:28:34;7.43;;;5.43;;
17363;SDS011;8799;43.594;13.526;2022-07-25T13:31:02;11.43;;;5.40;;
17363;SDS011;8799;43.594;13.526;2022-07-25T13:33:32;6.83;;;4.90;;
17363;SDS011;8799;43.594;13.526;2022-07-25T13:36:00;7.30;;;5.00;;
17363;SDS011;8799;43.594;13.526;2022-07-25T13:38:28;7.37;;;5.43;;
17363;SDS011;8799;43.594;13.526;2022-07-25T13:40:56;6.43;;;5.17;;
17363;SDS011;8799;43.594;13.526;2022-07-25T13:43:23;7.20;;;5.53;;
17363;SDS011;8799;43.594;13.526;2022-07-25T13:45:52;6.53;;;5.03;;
17363;SDS011;8799;43.594;13.526;2022-07-25T13:48:20;6.17;;;4.93;;
17363;SDS011;8799;43.594;13.526;2022-07-25T13:50:49;9.37;;;5.17;;
17363;SDS011;8799;43.594;13.526;2022-07-25T13:53:17;8.93;;;5.30;;
17363;SDS011;8799;43.594;13.526;2022-07-25T13:55:45;9.02;;;4.70;;
17363;SDS011;8799;43.594;13.526;2022-07-25T13:58:13;7.27;;;5.23;;
17363;SDS011;8799;43.594;13.526;2022-07-25T14:00:41;7.17;;;5.23;;
17363;SDS011;8799;43.594;13.526;2022-07-25T14:03:10;6.50;;;5.00;;
17363;SDS011;8799;43.594;13.526;2022-07-25T14:05:38;8.50;;;5.50;;
17363;SDS011;8799;43.594;13.526;2022-07-25T14:08:08;6.47;;;4.90;;
17363;SDS011;8799;43.594;13.526;2022-07-25T14:10:36;7.63;;;5.40;;
17363;SDS011;8799;43.594;13.526;2022-07-25T14:13:05;7.97;;;5.20;;
17363;SDS011;8799;43.594;13.526;2022-07-25T14:15:33;7.23;;;5.10;;
17363;SDS011;8799;43.594;13.526;2022-07-25T14:18:01;9.80;;;5.53;;
17363;SDS011;8799;43.594;13.526;2022-07-25T14:20:29;6.87;;;5.30;;
17363;SDS011;8799;43.594;13.526;2022-07-25T14:22:58;8.03;;;5.57;;
17363;SDS011;8799;43.594;13.526;2022-07-25T14:25:28;5.53;;;4.70;;
17363;SDS011;8799;43.594;13.526;2022-07-25T14:27:55;6.53;;;5.50;;
17363;SDS011;8799;43.594;13.526;2022-07-25T14:30:27;6.90;;;5.43;;
17363;SDS011;8799;43.594;13.526;2022-07-25T14:32:59;8.13;;;5.57;;
17363;SDS011;8799;43.594;13.526;2022-07-25T14:35:27;6.77;;;4.77;;
17363;SDS011;8799;43.594;13.526;2022-07-25T14:37:59;6.80;;;5.00;;
17363;SDS011;8799;43.594;13.526;2022-07-25T14:40:32;7.70;;;5.23;;
17363;SDS011;8799;43.594;13.526;2022-07-25T14:43:01;8.33;;;5.33;;
17363;SDS011;8799;43.594;13.526;2022-07-25T14:45:29;6.07;;;5.00;;
17363;SDS011;8799;43.594;13.526;2022-07-25T14:47:57;6.77;;;5.27;;
17363;SDS011;8799;43.594;13.526;2022-07-25T14:50:24;7.40;;;5.27;;
17363;SDS011;8799;43.594;13.526;2022-07-25T14:52:52;8.88;;;5.35;;
17363;SDS011;8799;43.594;13.526;2022-07-25T14:55:20;5.53;;;4.43;;
17363;SDS011;8799;43.594;13.526;2022-07-25T14:57:50;6.97;;;5.10;;